Time;durP1;ratioP1;P1;durP2;ratioP2;P2;SDS_P1;SDS_P2;PMS_P1;PMS_P2;Temp;Humidity;BMP_temperature;BMP_pressure;BME280_temperature;BME280_humidity;BME280_pressure;Samples;Min_cycle;Max_cycle;Signal;HPM_P1;HPM_P2
2023/09/17 00:00:22;;;;;;;37.17;34.08;;;;;;;19.58;100.00;101714.94;4983181;28;20050;-78
2023/09/17 00:02:49;;;;;;;38.72;35.42;;;;;;;19.68;100.00;101725.09;4979922;28;20142;-78
2023/09/17 00:05:16;;;;;;;45.50;41.80;;;;;;;19.61;100.00;101709.06;4980628;28;20042;-78
2023/09/17 00:07:44;;;;;;;40.00;36.60;;;;;;;19.59;100.00;101705.78;4985121;28;20054;-77
2023/09/17 00:10:12;;;;;;;40.80;37.42;;;;;;;19.63;100.00;101714.19;4984367;28;20055;-78
2023/09/17 00:12:39;;;;;;;40.60;36.90;;;;;;;19.72;100.00;101715.47;4981296;28;20070;-85
2023/09/17 00:15:10;;;;;;;34.35;31.45;;;;;;;19.72;100.00;101714.66;4980299;28;20081;-78
2023/09/17 00:17:38;;;;;;;40.30;36.90;;;;;;;19.69;100.00;101718.66;4981999;28;20046;-84
2023/09/17 00:20:10;;;;;;;38.47;35.25;;;;;;;19.74;100.00;101716.06;4981505;28;20073;-85
2023/09/17 00:22:37;;;;;;;37.60;34.42;;;;;;;19.78;100.00;101719.88;4984492;28;20105;-78
2023/09/17 00:25:05;;;;;;;40.60;37.30;;;;;;;19.71;100.00;101718.41;4983869;28;20046;-85
2023/09/17 00:27:32;;;;;;;37.80;34.60;;;;;;;19.71;100.00;101711.16;4984612;28;20133;-85
2023/09/17 00:29:59;;;;;;;36.78;33.40;;;;;;;19.69;100.00;101715.94;4985834;28;20181;-85
2023/09/17 00:32:26;;;;;;;40.08;36.67;;;;;;;19.66;100.00;101711.03;4983902;28;20566;-85
2023/09/17 00:34:55;;;;;;;39.65;36.35;;;;;;;19.78;100.00;101725.28;4977102;28;20124;-85
2023/09/17 00:37:22;;;;;;;39.83;36.42;;;;;;;19.74;100.00;101720.63;4983580;28;20132;-85
2023/09/17 00:39:49;;;;;;;42.10;38.70;;;;;;;19.77;100.00;101712.06;4982783;28;20093;-84
2023/09/17 00:42:16;;;;;;;41.92;38.53;;;;;;;19.71;100.00;101713.84;4984106;28;20130;-85
2023/09/17 00:44:43;;;;;;;44.08;40.47;;;;;;;19.58;100.00;101719.50;4977879;28;20134;-85
2023/09/17 00:47:11;;;;;;;43.63;39.65;;;;;;;19.55;100.00;101711.91;4981687;28;20142;-85
2023/09/17 00:49:38;;;;;;;41.22;37.55;;;;;;;19.37;100.00;101699.47;4985084;28;20085;-84
2023/09/17 00:52:15;;;;;;;45.72;42.10;;;;;;;19.69;100.00;101707.88;4985098;28;20073;-85
2023/09/17 00:54:44;;;;;;;40.22;36.90;;;;;;;19.52;100.00;101712.41;4979899;28;20051;-84
2023/09/17 00:57:15;;;;;;;43.15;39.65;;;;;;;19.48;100.00;101711.22;4983865;28;20138;-84
2023/09/17 00:59:43;;;;;;;39.97;36.57;;;;;;;19.40;100.00;101709.75;4983491;28;20046;-85
2023/09/17 01:02:10;;;;;;;41.67;38.38;;;;;;;19.58;100.00;101712.25;4975312;28;20345;-85
2023/09/17 01:04:41;;;;;;;39.42;36.22;;;;;;;19.71;100.00;101710.34;4984469;28;20054;-84
2023/09/17 01:07:10;;;;;;;39.75;36.35;;;;;;;19.81;100.00;101708.63;4976825;28;20133;-84
2023/09/17 01:09:38;;;;;;;36.25;33.25;;;;;;;19.83;100.00;101708.38;4979976;28;20051;-78
2023/09/17 01:12:07;;;;;;;42.60;39.10;;;;;;;19.61;100.00;101710.94;4977697;28;20879;-78
2023/09/17 01:14:35;;;;;;;41.58;38.35;;;;;;;19.49;100.00;101712.88;4979935;28;20051;-85
2023/09/17 01:17:03;;;;;;;38.75;35.65;;;;;;;19.71;100.00;101702.25;4987882;28;20436;-84
2023/09/17 01:19:32;;;;;;;40.80;37.40;;;;;;;19.79;100.00;101705.38;4982449;28;20054;-85
2023/09/17 01:22:06;;;;;;;41.10;37.78;;;;;;;19.54;100.00;101697.59;4977842;28;20113;-84
2023/09/17 01:24:45;;;;;;;37.42;34.33;;;;;;;19.45;100.00;101702.59;4984317;28;20060;-85
2023/09/17 01:27:14;;;;;;;39.53;35.85;;;;;;;19.33;100.00;101695.59;4979795;28;20544;-85
2023/09/17 01:29:43;;;;;;;37.67;34.58;;;;;;;19.33;100.00;101685.63;4981500;28;20051;-84
2023/09/17 01:32:11;;;;;;;41.00;37.70;;;;;;;19.57;100.00;101697.13;4978778;28;20085;-84
2023/09/17 01:34:41;;;;;;;41.15;37.75;;;;;;;19.72;100.00;101676.91;4985757;28;20068;-84
2023/09/17 01:37:12;;;;;;;38.38;35.22;;;;;;;19.28;100.00;101690.13;4976940;28;20058;-84
2023/09/17 01:39:44;;;;;;;47.60;43.70;;;;;;;19.27;100.00;101688.47;4984088;28;20594;-84
2023/09/17 01:42:12;;;;;;;51.72;47.72;;;;;;;19.40;100.00;101690.91;4979888;28;20038;-84
2023/09/17 01:44:41;;;;;;;45.22;41.50;;;;;;;19.94;100.00;101679.69;4982159;28;20042;-85
2023/09/17 01:47:09;;;;;;;38.88;35.47;;;;;;;19.42;100.00;101681.47;4978739;28;20051;-84
2023/09/17 01:49:37;;;;;;;41.80;38.40;;;;;;;19.34;100.00;101687.28;4977859;28;20113;-84
2023/09/17 01:52:05;;;;;;;41.72;38.33;;;;;;;19.33;100.00;101682.13;4979776;28;20082;-84
2023/09/17 01:54:32;;;;;;;36.75;33.75;;;;;;;19.30;100.00;101685.28;4976617;28;20055;-78
2023/09/17 01:56:59;;;;;;;41.78;38.38;;;;;;;19.28;100.00;101687.44;4983759;28;20415;-77
2023/09/17 01:59:27;;;;;;;39.42;36.13;;;;;;;19.14;100.00;101686.88;4979613;28;20544;-78
2023/09/17 02:01:55;;;;;;;36.53;33.30;;;;;;;19.05;100.00;101685.63;4982656;28;20100;-83
2023/09/17 02:04:22;;;;;;;44.00;40.10;;;;;;;19.12;100.00;101691.69;4975903;28;20054;-78
2023/09/17 02:06:53;;;;;;;42.00;38.35;;;;;;;19.08;100.00;101685.16;4979893;28;20579;-78
2023/09/17 02:09:20;;;;;;;37.75;34.50;;;;;;;19.05;100.00;101683.75;4982969;28;20495;-78
2023/09/17 02:11:48;;;;;;;43.28;39.67;;;;;;;19.14;100.00;101692.28;4984972;28;20512;-78
2023/09/17 02:14:16;;;;;;;38.60;35.38;;;;;;;19.15;100.00;101688.50;4980540;28;20058;-78
2023/09/17 02:16:43;;;;;;;39.60;36.17;;;;;;;19.11;100.00;101677.41;4981628;28;20046;-78
2023/09/17 02:19:12;;;;;;;36.30;33.20;;;;;;;19.01;100.00;101689.88;4979790;28;20464;-78
2023/09/17 02:21:40;;;;;;;49.13;45.58;;;;;;;18.99;100.00;101682.81;4984458;28;20081;-77
2023/09/17 02:24:07;;;;;;;46.10;42.55;;;;;;;19.04;100.00;101684.00;4978821;28;20054;-78
2023/09/17 02:26:34;;;;;;;37.78;34.67;;;;;;;18.97;100.00;101684.97;4982714;28;20061;-78
2023/09/17 02:29:02;;;;;;;38.60;35.40;;;;;;;19.09;100.00;101690.31;4977713;28;20078;-83
2023/09/17 02:31:30;;;;;;;40.80;37.47;;;;;;;19.22;100.00;101692.72;4980185;28;20105;-78
2023/09/17 02:33:57;;;;;;;39.95;36.65;;;;;;;18.92;100.00;101684.03;4973645;28;20047;-78
2023/09/17 02:36:25;;;;;;;39.58;36.28;;;;;;;19.28;100.00;101695.50;4983372;28;20125;-78
2023/09/17 02:38:52;;;;;;;36.13;33.10;;;;;;;19.05;100.00;101682.94;4977034;28;20053;-78
2023/09/17 02:41:19;;;;;;;38.50;35.33;;;;;;;18.93;100.00;101694.53;4977090;28;20481;-78
2023/09/17 02:43:46;;;;;;;43.30;39.42;;;;;;;18.80;100.00;101689.44;4981404;28;20074;-78
2023/09/17 02:46:13;;;;;;;39.35;36.15;;;;;;;18.99;100.00;101692.78;4978764;28;20086;-78
2023/09/17 02:48:40;;;;;;;43.85;40.45;;;;;;;19.26;100.00;101687.66;4982102;28;20133;-78
2023/09/17 02:51:07;;;;;;;40.00;36.80;;;;;;;19.11;100.00;101688.19;4980647;28;20070;-84
2023/09/17 02:53:38;;;;;;;46.35;42.40;;;;;;;18.95;100.00;101692.44;4986165;28;20077;-84
2023/09/17 02:56:05;;;;;;;45.15;41.65;;;;;;;18.96;100.00;101688.69;4980274;28;20054;-78
2023/09/17 02:58:32;;;;;;;39.58;36.33;;;;;;;19.19;100.00;101692.38;4982619;28;20516;-84
2023/09/17 03:01:01;;;;;;;42.63;39.20;;;;;;;19.03;100.00;101679.66;4981530;28;20055;-84
2023/09/17 03:03:28;;;;;;;48.10;44.28;;;;;;;19.23;100.00;101686.25;4978969;28;20057;-84
2023/09/17 03:05:56;;;;;;;52.58;48.67;;;;;;;19.09;100.00;101686.78;4974937;28;20085;-84
2023/09/17 03:08:23;;;;;;;44.22;40.47;;;;;;;19.07;100.00;101676.25;4982263;28;20085;-84
2023/09/17 03:10:59;;;;;;;45.10;41.65;;;;;;;19.01;100.00;101679.09;4983982;28;20096;-84
2023/09/17 03:13:26;;;;;;;44.95;41.65;;;;;;;19.65;100.00;101677.09;4981174;28;20421;-84
2023/09/17 03:15:57;;;;;;;39.75;36.67;;;;;;;19.18;100.00;101690.72;4980314;28;20050;-84
2023/09/17 03:18:24;;;;;;;36.50;33.40;;;;;;;19.05;100.00;101680.25;4981532;28;20121;-84
2023/09/17 03:20:52;;;;;;;37.92;34.72;;;;;;;19.16;100.00;101688.28;4979755;28;20051;-84
2023/09/17 03:23:19;;;;;;;38.78;35.58;;;;;;;19.07;100.00;101683.53;4978741;28;20109;-84
2023/09/17 03:25:46;;;;;;;35.83;32.83;;;;;;;19.07;100.00;101686.22;4979012;28;20052;-84
2023/09/17 03:28:15;;;;;;;39.70;36.50;;;;;;;19.09;100.00;101686.78;4973761;28;20051;-84
2023/09/17 03:30:42;;;;;;;36.00;33.10;;;;;;;18.86;100.00;101684.97;4982871;28;20047;-84
2023/09/17 03:33:09;;;;;;;35.20;32.25;;;;;;;19.00;100.00;101678.25;4983835;28;20121;-84
2023/09/17 03:35:36;;;;;;;35.33;32.42;;;;;;;19.09;100.00;101676.00;4976989;28;20105;-78
2023/09/17 03:38:03;;;;;;;39.38;36.17;;;;;;;19.83;100.00;101679.53;4982400;28;20051;-78
2023/09/17 03:40:32;;;;;;;37.05;34.38;;;;;;;20.28;100.00;101667.84;4979606;28;20117;-78
2023/09/17 03:42:59;;;;;;;34.00;31.30;;;;;;;19.21;100.00;101671.41;4972713;28;20678;-78
2023/09/17 03:45:27;;;;;;;35.55;32.92;;;;;;;19.88;100.00;101676.94;4975301;28;20741;-79
2023/09/17 03:47:54;;;;;;;33.63;31.02;;;;;;;19.29;100.00;101676.41;4978203;28;20133;-78
2023/09/17 03:50:21;;;;;;;30.35;28.05;;;;;;;18.97;100.00;101684.13;4980376;28;20046;-78
2023/09/17 03:52:52;;;;;;;30.92;28.63;;;;;;;19.03;100.00;101693.13;4973818;28;20177;-78
2023/09/17 03:55:20;;;;;;;29.23;27.02;;;;;;;18.75;100.00;101686.63;4980091;28;20062;-78
2023/09/17 03:57:47;;;;;;;30.48;28.08;;;;;;;18.81;100.00;101698.31;4978182;28;20129;-78
2023/09/17 04:00:15;;;;;;;30.10;27.80;;;;;;;18.63;100.00;101693.88;4981617;28;20051;-78
2023/09/17 04:02:45;;;;;;;29.90;27.70;;;;;;;18.84;100.00;101698.66;4984838;28;20042;-78
2023/09/17 04:05:14;;;;;;;28.60;26.40;;;;;;;18.51;100.00;101700.06;4978823;28;20422;-78
2023/09/17 04:07:42;;;;;;;28.45;26.45;;;;;;;18.82;100.00;101691.88;4983314;28;20543;-78
2023/09/17 04:10:10;;;;;;;29.27;27.27;;;;;;;19.86;100.00;101697.94;4981861;28;20057;-85
2023/09/17 04:12:38;;;;;;;29.88;27.77;;;;;;;19.20;100.00;101689.44;4981192;28;20432;-78
2023/09/17 04:15:10;;;;;;;28.15;26.05;;;;;;;19.24;100.00;101687.06;4982467;28;20082;-78
2023/09/17 04:17:37;;;;;;;28.35;26.35;;;;;;;18.71;100.00;101696.22;4983144;28;20054;-78
2023/09/17 04:20:11;;;;;;;29.60;27.30;;;;;;;18.67;100.00;101697.72;4985804;28;20101;-85
2023/09/17 04:22:38;;;;;;;28.90;26.80;;;;;;;18.56;100.00;101698.56;4986627;28;20054;-85
2023/09/17 04:25:05;;;;;;;28.25;26.15;;;;;;;18.59;100.00;101698.09;4987478;28;20054;-85
2023/09/17 04:27:33;;;;;;;29.25;27.15;;;;;;;18.96;100.00;101688.69;4989943;28;20125;-84
2023/09/17 04:30:00;;;;;;;29.67;27.27;;;;;;;18.84;100.00;101711.31;4988390;28;20058;-78
2023/09/17 04:32:27;;;;;;;30.65;28.40;;;;;;;18.93;100.00;101701.81;4990551;28;20085;-85
2023/09/17 04:34:54;;;;;;;36.45;30.38;;;;;;;18.82;100.00;101697.25;4987006;28;20042;-85
2023/09/17 04:37:22;;;;;;;31.17;28.98;;;;;;;18.88;100.00;101704.38;4990309;28;20524;-79
2023/09/17 04:39:50;;;;;;;31.02;28.83;;;;;;;18.83;100.00;101699.72;4987271;28;20489;-79
2023/09/17 04:42:17;;;;;;;35.25;32.42;;;;;;;18.94;100.00;101700.75;4987301;28;20528;-78
2023/09/17 04:44:44;;;;;;;33.00;30.70;;;;;;;19.00;100.00;101705.16;4973902;28;20101;-78
2023/09/17 04:47:11;;;;;;;32.08;29.77;;;;;;;18.92;100.00;101714.44;4979286;28;20054;-78
2023/09/17 04:49:38;;;;;;;29.85;27.75;;;;;;;19.93;100.00;101705.03;4980097;28;20089;-78
2023/09/17 04:52:05;;;;;;;31.42;28.55;;;;;;;19.53;100.00;101705.94;4983341;28;20050;-78
2023/09/17 04:54:33;;;;;;;34.10;31.70;;;;;;;19.95;100.00;101701.03;4985898;28;20046;-79
2023/09/17 04:57:00;;;;;;;31.17;28.55;;;;;;;19.40;100.00;101701.66;4988637;28;20074;-79
2023/09/17 04:59:28;;;;;;;28.33;26.23;;;;;;;19.58;100.00;101712.25;4987151;28;20056;-85
2023/09/17 05:01:55;;;;;;;31.77;28.85;;;;;;;19.65;100.00;101712.94;4989948;28;20053;-85
2023/09/17 05:04:24;;;;;;;31.40;29.00;;;;;;;19.62;100.00;101712.56;4989196;28;20140;-85
2023/09/17 05:06:51;;;;;;;32.92;30.48;;;;;;;20.13;100.00;101716.97;4989611;28;20422;-85
2023/09/17 05:09:18;;;;;;;31.95;29.65;;;;;;;20.30;100.00;101716.97;4988132;28;20042;-86
2023/09/17 05:11:47;;;;;;;30.23;28.02;;;;;;;21.15;100.00;101714.06;4987491;28;20137;-85
2023/09/17 05:14:14;;;;;;;29.58;27.40;;;;;;;20.29;100.00;101718.03;4987809;28;20090;-83
2023/09/17 05:16:41;;;;;;;34.53;32.10;;;;;;;19.93;100.00;101705.03;4987499;28;20044;-84
2023/09/17 05:19:08;;;;;;;36.45;33.65;;;;;;;20.25;100.00;101713.38;4986855;28;20102;-85
2023/09/17 05:21:35;;;;;;;37.65;34.95;;;;;;;20.11;100.00;101726.38;4990641;28;20049;-84
2023/09/17 05:24:02;;;;;;;35.20;32.60;;;;;;;20.29;100.00;101715.31;4985849;28;20046;-84
2023/09/17 05:26:31;;;;;;;33.58;30.98;;;;;;;20.38;100.00;101717.63;4987575;28;20122;-78
2023/09/17 05:28:59;;;;;;;35.67;32.80;;;;;;;20.21;100.00;101721.16;4989612;28;20057;-86
2023/09/17 05:31:26;;;;;;;35.58;32.58;;;;;;;20.36;100.00;101709.75;4990102;28;20499;-79
2023/09/17 05:33:54;;;;;;;35.90;32.90;;;;;;;20.56;100.00;101715.47;4989664;28;20070;-78
2023/09/17 05:36:21;;;;;;;34.97;32.25;;;;;;;20.52;100.00;101714.34;4987434;28;20054;-78
2023/09/17 05:38:48;;;;;;;37.05;34.05;;;;;;;20.58;100.00;101715.25;4986990;28;20129;-79
2023/09/17 05:41:16;;;;;;;34.72;31.92;;;;;;;20.78;100.00;101720.09;4992140;28;20046;-78
2023/09/17 05:43:46;;;;;;;33.80;31.30;;;;;;;20.93;100.00;101722.19;4988892;28;20053;-78
2023/09/17 05:46:15;;;;;;;35.20;32.40;;;;;;;21.02;100.00;101720.66;4990243;28;20061;-78
2023/09/17 05:48:48;;;;;;;33.63;30.92;;;;;;;21.07;100.00;101723.44;4992166;28;20093;-78
2023/09/17 05:51:15;;;;;;;34.63;32.03;;;;;;;21.12;100.00;101718.09;4989600;28;20090;-78
2023/09/17 05:53:42;;;;;;;32.10;29.67;;;;;;;21.38;100.00;101724.63;4984520;28;20145;-78
2023/09/17 05:56:11;;;;;;;29.45;27.27;;;;;;;21.47;100.00;101733.09;4990494;28;20117;-78
2023/09/17 05:58:38;;;;;;;31.77;29.20;;;;;;;22.03;100.00;101735.50;4990487;28;20054;-78
2023/09/17 06:01:05;;;;;;;31.20;28.63;;;;;;;21.40;100.00;101732.50;4981860;28;20054;-78
2023/09/17 06:03:35;;;;;;;31.65;29.23;;;;;;;21.31;100.00;101737.50;4984568;28;20093;-79
2023/09/17 06:06:03;;;;;;;30.70;28.35;;;;;;;21.66;100.00;101731.66;4991380;28;20054;-79
2023/09/17 06:08:37;;;;;;;30.98;28.67;;;;;;;21.91;100.00;101731.09;4989408;28;20042;-78
2023/09/17 06:11:04;;;;;;;31.23;28.73;;;;;;;21.84;100.00;101735.88;4984324;28;20046;-78
2023/09/17 06:13:31;;;;;;;29.45;27.15;;;;;;;22.27;100.00;101731.41;4987518;28;20051;-78
2023/09/17 06:15:58;;;;;;;29.23;27.02;;;;;;;22.04;100.00;101734.44;4983458;28;20469;-78
2023/09/17 06:18:28;;;;;;;30.08;27.98;;;;;;;22.31;100.00;101742.53;4987799;28;20108;-78
2023/09/17 06:20:57;;;;;;;27.83;25.83;;;;;;;21.89;100.00;101743.25;4990851;28;20409;-79
2023/09/17 06:23:24;;;;;;;28.45;26.35;;;;;;;22.24;100.00;101747.34;4991045;28;20508;-79
2023/09/17 06:25:51;;;;;;;27.45;25.25;;;;;;;22.18;100.00;101747.31;4983640;28;20058;-79
2023/09/17 06:28:18;;;;;;;27.98;25.98;;;;;;;22.12;100.00;101744.81;4990606;28;20413;-84
2023/09/17 06:30:46;;;;;;;25.42;23.52;;;;;;;22.19;100.00;101737.31;4989922;28;20141;-83
2023/09/17 06:33:15;;;;;;;26.58;24.67;;;;;;;22.57;100.00;101746.22;4988454;28;20050;-85
2023/09/17 06:35:50;;;;;;;27.67;25.77;;;;;;;22.60;100.00;101746.53;4990782;28;20089;-84
2023/09/17 06:38:18;;;;;;;25.23;23.52;;;;;;;22.72;100.00;101743.59;4984115;28;20043;-83
2023/09/17 06:40:45;;;;;;;25.08;23.13;;;;;;;22.57;100.00;101752.47;4991006;28;20050;-78
2023/09/17 06:43:13;;;;;;;26.40;24.50;;;;;;;22.52;100.00;101749.72;4984281;28;20105;-79
2023/09/17 06:45:40;;;;;;;27.42;25.42;;;;;;;22.61;100.00;101755.47;4983864;28;20109;-78
2023/09/17 06:48:07;;;;;;;26.65;24.75;;;;;;;22.93;100.00;101747.22;4981224;28;20043;-85
2023/09/17 06:50:35;;;;;;;25.67;23.88;;;;;;;23.25;100.00;101749.81;4989210;28;20096;-85
2023/09/17 06:53:04;;;;;;;25.70;23.90;;;;;;;23.17;100.00;101752.22;4989026;28;20043;-78
2023/09/17 06:55:34;;;;;;;24.05;22.35;;;;;;;22.53;100.00;101758.66;4984221;28;20062;-84
2023/09/17 06:58:01;;;;;;;24.85;23.05;;;;;;;22.77;100.00;101756.34;4977803;28;20058;-78
2023/09/17 07:00:28;;;;;;;24.35;22.50;;;;;;;22.81;100.00;101758.28;4989635;28;20065;-78
2023/09/17 07:02:55;;;;;;;24.67;22.98;;;;;;;22.59;100.00;101760.31;4990033;28;20046;-83
2023/09/17 07:05:22;;;;;;;25.15;23.40;;;;;;;22.58;100.00;101766.81;4988044;28;20076;-85
2023/09/17 07:07:48;;;;;;;24.48;22.77;;;;;;;22.86;100.00;101765.63;4982503;28;20054;-84
2023/09/17 07:10:15;;;;;;;24.30;22.50;;;;;;;22.76;100.00;101774.50;4986180;28;20050;-85
2023/09/17 07:12:50;;;;;;;27.25;24.65;;;;;;;22.71;100.00;101770.94;4985246;28;20050;-78
2023/09/17 07:15:18;;;;;;;25.90;24.00;;;;;;;22.67;100.00;101775.25;4986436;28;20054;-78
2023/09/17 07:17:45;;;;;;;25.55;23.65;;;;;;;22.33;100.00;101775.53;4982037;28;20141;-85
2023/09/17 07:20:13;;;;;;;31.45;25.35;;;;;;;22.70;100.00;101775.56;4987933;28;20056;-85
2023/09/17 07:22:41;;;;;;;24.48;22.65;;;;;;;22.61;100.00;101775.22;4980689;28;20058;-85
2023/09/17 07:25:08;;;;;;;25.10;23.10;;;;;;;22.73;100.00;101779.63;4986248;28;20050;-85
2023/09/17 07:27:35;;;;;;;26.38;24.27;;;;;;;22.46;100.00;101771.59;4988373;28;20050;-85
2023/09/17 07:30:19;;;;;;;23.75;21.95;;;;;;;22.73;100.00;101785.84;4990036;28;20109;-85
2023/09/17 07:32:46;;;;;;;23.63;21.92;;;;;;;22.51;100.00;101777.03;4990301;28;20050;-78
2023/09/17 07:35:13;;;;;;;24.95;22.95;;;;;;;22.52;100.00;101775.97;4986013;28;20056;-84
2023/09/17 07:37:40;;;;;;;24.80;23.00;;;;;;;22.22;100.00;101779.28;4985773;28;20070;-85
2023/09/17 07:40:07;;;;;;;24.80;23.00;;;;;;;22.45;100.00;101778.91;4989808;28;20125;-78
2023/09/17 07:42:34;;;;;;;26.10;24.20;;;;;;;22.76;100.00;101784.53;4974010;28;20047;-85
2023/09/17 07:45:02;;;;;;;25.55;23.60;;;;;;;23.04;100.00;101775.22;4989175;28;20077;-86
2023/09/17 07:47:31;;;;;;;23.05;21.45;;;;;;;22.88;100.00;101777.00;4978580;28;20981;-84
2023/09/17 07:50:05;;;;;;;24.92;23.23;;;;;;;22.97;100.00;101771.94;4986883;28;20056;-85
2023/09/17 07:52:32;;;;;;;23.45;21.75;;;;;;;22.97;100.00;101772.75;4988501;28;20061;-85
2023/09/17 07:54:59;;;;;;;25.30;23.50;;;;;;;23.67;100.00;101765.13;4985617;28;20065;-86
2023/09/17 07:57:28;;;;;;;24.30;22.30;;;;;;;24.09;100.00;101764.09;4987746;28;20440;-85
2023/09/17 07:59:55;;;;;;;22.65;20.65;;;;;;;23.46;100.00;101758.84;4987852;28;20074;-86
2023/09/17 08:02:24;;;;;;;22.27;20.63;;;;;;;23.86;100.00;101760.03;4985088;28;20043;-86
2023/09/17 08:04:54;;;;;;;22.45;20.65;;;;;;;24.33;100.00;101747.28;4981462;28;20066;-86
2023/09/17 08:07:21;;;;;;;22.67;20.40;;;;;;;24.20;100.00;101745.91;4988647;28;20429;-85
2023/09/17 08:09:48;;;;;;;21.92;20.20;;;;;;;24.78;100.00;101745.56;4991676;28;20042;-87
2023/09/17 08:12:15;;;;;;;21.08;19.58;;;;;;;24.28;100.00;101745.38;4993437;28;20051;-87
2023/09/17 08:14:46;;;;;;;22.45;20.85;;;;;;;24.71;100.00;101743.13;4982371;28;20925;-84
2023/09/17 08:17:21;;;;;;;19.77;18.27;;;;;;;25.20;100.00;101738.91;4986527;28;20405;-86
2023/09/17 08:19:48;;;;;;;20.67;18.92;;;;;;;25.88;100.00;101738.22;4992601;28;20042;-87
2023/09/17 08:22:17;;;;;;;21.30;19.70;;;;;;;25.39;100.00;101728.19;4984044;28;21075;-85
2023/09/17 08:24:44;;;;;;;20.33;18.83;;;;;;;25.29;100.00;101715.47;4979833;28;20050;-86
2023/09/17 08:27:11;;;;;;;22.25;19.55;;;;;;;25.71;100.00;101720.34;4982847;28;20082;-85
2023/09/17 08:29:38;;;;;;;20.80;19.23;;;;;;;25.60;100.00;101721.53;4977461;28;20861;-84
2023/09/17 08:32:07;;;;;;;22.17;20.48;;;;;;;25.99;100.00;101716.09;4984555;28;20520;-87
2023/09/17 08:34:34;;;;;;;20.58;19.08;;;;;;;25.88;100.00;101717.28;4976679;28;20054;-79
2023/09/17 08:37:03;;;;;;;22.05;20.25;;;;;;;26.12;100.00;101722.78;4988975;28;20055;-79
2023/09/17 08:39:32;;;;;;;21.48;19.20;;;;;;;26.63;100.00;101729.66;4985130;28;20592;-78
2023/09/17 08:42:02;;;;;;;21.63;19.83;;;;;;;27.06;100.00;101722.28;4974774;28;20077;-79
2023/09/17 08:44:31;;;;;;;22.38;20.48;;;;;;;26.40;100.00;101717.59;4985118;28;20074;-78
2023/09/17 08:47:00;;;;;;;20.42;18.83;;;;;;;26.81;100.00;101720.72;4983464;28;20066;-79
2023/09/17 08:49:28;;;;;;;19.75;18.25;;;;;;;26.59;100.00;101714.97;4990640;28;20137;-79
2023/09/17 08:51:56;;;;;;;20.10;18.60;;;;;;;26.41;100.00;101705.59;4992765;28;20126;-79
2023/09/17 08:54:27;;;;;;;22.92;20.73;;;;;;;26.80;100.00;101713.63;4980582;28;20584;-78
2023/09/17 08:57:04;;;;;;;20.63;19.02;;;;;;;26.18;100.00;101707.22;4989179;28;20046;-79
2023/09/17 08:59:35;;;;;;;21.63;19.88;;;;;;;26.15;100.00;101707.78;4988744;28;20078;-79
2023/09/17 09:02:07;;;;;;;19.45;17.95;;;;;;;26.02;100.00;101712.78;4987793;28;20057;-78
2023/09/17 09:04:37;;;;;;;18.80;17.30;;;;;;;25.94;100.00;101709.88;4989260;28;20097;-78
2023/09/17 09:07:07;;;;;;;22.08;20.30;;;;;;;25.71;100.00;101714.91;4989137;28;20053;-78
2023/09/17 09:09:42;;;;;;;19.65;17.95;;;;;;;26.15;100.00;101713.22;4988751;28;20054;-79
2023/09/17 09:12:11;;;;;;;20.73;19.13;;;;;;;26.96;100.00;101716.97;4983260;28;20050;-79
2023/09/17 09:14:41;;;;;;;19.98;18.48;;;;;;;26.25;100.00;101713.91;4981684;28;20116;-79
2023/09/17 09:17:19;;;;;;;22.20;20.50;;;;;;;26.13;100.00;101708.06;4981453;28;20050;-79
2023/09/17 09:19:46;;;;;;;21.83;20.15;;;;;;;26.00;100.00;101708.72;4987264;28;20065;-85
2023/09/17 09:22:15;;;;;;;20.50;18.92;;;;;;;25.73;100.00;101717.34;4986678;28;20093;-88
2023/09/17 09:24:46;;;;;;;19.45;17.85;;;;;;;26.11;100.00;101714.88;4992955;28;20050;-86
2023/09/17 09:27:14;;;;;;;21.65;19.73;;;;;;;25.80;100.00;101704.22;4991672;28;20046;-86
2023/09/17 09:29:43;;;;;;;21.20;19.60;;;;;;;26.31;100.00;101705.72;4991734;28;20057;-87
2023/09/17 09:32:19;;;;;;;22.20;20.52;;;;;;;25.96;100.00;101705.78;4992343;28;20062;-86
2023/09/17 09:34:48;;;;;;;21.85;20.25;;;;;;;25.97;100.00;101707.38;4983330;28;20524;-86
2023/09/17 09:37:21;;;;;;;20.75;19.15;;;;;;;25.61;100.00;101700.59;4984507;28;20051;-86
2023/09/17 09:39:54;;;;;;;21.08;19.48;;;;;;;26.15;100.00;101699.63;4987944;28;20074;-85
2023/09/17 09:42:22;;;;;;;;;;;;;;;25.83;100.00;101697.44;4985611;28;20054;-86
2023/09/17 09:44:51;;;;;;;20.70;19.10;;;;;;;26.39;100.00;101695.00;4990713;28;19930;-86
2023/09/17 09:47:21;;;;;;;20.10;18.40;;;;;;;25.80;100.00;101696.88;4985095;28;20050;-79
2023/09/17 09:49:52;;;;;;;20.23;18.73;;;;;;;25.78;100.00;101679.22;4989482;28;20062;-86
2023/09/17 09:52:22;;;;;;;21.17;19.50;;;;;;;26.13;100.00;101688.19;4988818;28;20100;-86
2023/09/17 09:54:50;;;;;;;21.35;19.05;;;;;;;26.66;100.00;101671.84;4981045;28;20046;-78
2023/09/17 09:57:32;;;;;;;22.40;20.80;;;;;;;27.20;100.00;101683.41;4990693;28;20046;-86
2023/09/17 10:00:06;;;;;;;22.40;20.70;;;;;;;26.87;100.00;101694.19;4992047;28;20403;-85
2023/09/17 10:02:33;;;;;;;20.40;18.80;;;;;;;26.77;100.00;101684.22;4985080;28;20046;-87
2023/09/17 10:05:00;;;;;;;21.50;19.80;;;;;;;27.54;100.00;101683.19;4992062;28;20134;-86
2023/09/17 10:07:28;;;;;;;22.10;20.33;;;;;;;27.81;100.00;101683.31;4984963;28;20425;-85
2023/09/17 10:09:54;;;;;;;21.90;20.30;;;;;;;27.72;100.00;101681.53;4984135;28;20078;-87
2023/09/17 10:12:22;;;;;;;20.88;19.38;;;;;;;27.42;100.00;101677.38;4976269;28;20046;-87
2023/09/17 10:14:51;;;;;;;22.80;21.05;;;;;;;27.20;100.00;101684.22;4987775;28;20129;-87
2023/09/17 10:17:18;;;;;;;22.70;21.10;;;;;;;27.92;100.00;101675.75;4988676;28;20077;-86
2023/09/17 10:19:47;;;;;;;21.13;19.52;;;;;;;28.51;100.00;101681.50;4983536;28;20055;-86
2023/09/17 10:22:17;;;;;;;20.98;19.38;;;;;;;28.89;100.00;101670.31;4973498;28;20047;-86
2023/09/17 10:24:55;;;;;;;22.63;20.73;;;;;;;29.37;100.00;101676.09;4988586;28;20042;-86
2023/09/17 10:27:25;;;;;;;24.08;22.38;;;;;;;28.51;100.00;101674.13;4988019;28;20061;-87
2023/09/17 10:29:55;;;;;;;23.35;21.65;;;;;;;28.71;100.00;101677.53;4990958;28;20043;-87
2023/09/17 10:32:28;;;;;;;26.35;24.45;;;;;;;28.63;100.00;101670.88;4986131;28;20046;-79
2023/09/17 10:34:58;;;;;;;22.85;21.05;;;;;;;29.53;100.00;101673.78;4982335;28;20058;-87
2023/09/17 10:37:27;;;;;;;20.80;19.10;;;;;;;29.21;100.00;101667.44;4991027;28;20046;-79
2023/09/17 10:39:56;;;;;;;21.95;20.25;;;;;;;28.92;100.00;101675.97;4972573;28;20058;-79
2023/09/17 10:42:25;;;;;;;22.00;20.15;;;;;;;29.54;100.00;101661.72;4990503;28;20046;-79
2023/09/17 10:44:56;;;;;;;21.08;19.48;;;;;;;29.11;100.00;101655.91;4979222;28;20441;-79
2023/09/17 10:47:26;;;;;;;24.40;22.13;;;;;;;29.35;100.00;101664.66;4974258;28;20058;-79
2023/09/17 10:49:54;;;;;;;20.90;19.40;;;;;;;29.72;100.00;101657.22;4981659;28;20137;-79
2023/09/17 10:52:22;;;;;;;22.05;20.45;;;;;;;29.56;100.00;101653.19;4986020;28;20091;-79
2023/09/17 10:54:49;;;;;;;21.90;20.20;;;;;;;29.14;100.00;101658.84;4976368;28;20050;-87
2023/09/17 10:57:36;;;;;;;21.65;19.95;;;;;;;28.88;100.00;101660.50;4989252;28;20056;-87
2023/09/17 11:00:07;;;;;;;21.27;19.58;;;;;;;29.33;100.00;101653.22;4978566;28;20062;-79
2023/09/17 11:02:45;;;;;;;22.00;20.35;;;;;;;29.26;100.00;101649.28;4981099;28;20046;-79
2023/09/17 11:05:20;;;;;;;21.10;19.40;;;;;;;28.99;100.00;101645.50;4981638;28;20133;-79
2023/09/17 11:07:48;;;;;;;39.33;32.97;;;;;;;28.76;100.00;101645.44;4981866;28;20064;-79